sensor_id;sensor_type;location;lat;lon;timestamp;P1;durP1;ratioP1;P2;durP2;ratioP2
68806;SDS011;55800;54.272;18.558;2023-12-29T00:02:19;8.15;;;5.07;;
68806;SDS011;55800;54.272;18.558;2023-12-29T00:04:48;10.45;;;4.40;;
68806;SDS011;55800;54.272;18.558;2023-12-29T00:07:18;11.95;;;5.13;;
68806;SDS011;55800;54.272;18.558;2023-12-29T00:09:48;10.13;;;4.60;;
68806;SDS011;55800;54.272;18.558;2023-12-29T00:12:17;10.93;;;4.63;;
68806;SDS011;55800;54.272;18.558;2023-12-29T00:14:47;11.50;;;4.80;;
68806;SDS011;55800;54.272;18.558;2023-12-29T00:17:17;8.68;;;4.80;;
68806;SDS011;55800;54.272;18.558;2023-12-29T00:19:48;8.55;;;4.28;;
68806;SDS011;55800;54.272;18.558;2023-12-29T00:22:17;10.65;;;4.82;;
68806;SDS011;55800;54.272;18.558;2023-12-29T00:24:48;10.88;;;4.82;;
68806;SDS011;55800;54.272;18.558;2023-12-29T00:27:17;8.40;;;4.05;;
68806;SDS011;55800;54.272;18.558;2023-12-29T00:29:47;8.43;;;6.20;;
68806;SDS011;55800;54.272;18.558;2023-12-29T00:32:16;6.88;;;4.78;;
68806;SDS011;55800;54.272;18.558;2023-12-29T00:34:47;9.00;;;4.80;;
68806;SDS011;55800;54.272;18.558;2023-12-29T00:37:17;9.50;;;4.47;;
68806;SDS011;55800;54.272;18.558;2023-12-29T00:39:46;10.20;;;5.85;;
68806;SDS011;55800;54.272;18.558;2023-12-29T00:42:17;5.72;;;3.65;;
68806;SDS011;55800;54.272;18.558;2023-12-29T00:44:46;7.50;;;4.55;;
68806;SDS011;55800;54.272;18.558;2023-12-29T00:47:16;8.50;;;4.18;;
68806;SDS011;55800;54.272;18.558;2023-12-29T00:49:48;8.90;;;5.43;;
68806;SDS011;55800;54.272;18.558;2023-12-29T00:52:17;9.80;;;4.70;;
68806;SDS011;55800;54.272;18.558;2023-12-29T00:54:47;9.82;;;5.03;;
68806;SDS011;55800;54.272;18.558;2023-12-29T00:57:16;4.55;;;3.28;;
68806;SDS011;55800;54.272;18.558;2023-12-29T00:59:46;7.60;;;4.47;;
68806;SDS011;55800;54.272;18.558;2023-12-29T01:02:16;8.90;;;4.90;;
68806;SDS011;55800;54.272;18.558;2023-12-29T01:04:45;6.43;;;5.07;;
68806;SDS011;55800;54.272;18.558;2023-12-29T01:07:16;8.57;;;4.72;;
68806;SDS011;55800;54.272;18.558;2023-12-29T01:09:46;9.35;;;4.55;;
68806;SDS011;55800;54.272;18.558;2023-12-29T01:12:15;10.25;;;4.75;;
68806;SDS011;55800;54.272;18.558;2023-12-29T01:14:44;8.43;;;4.57;;
68806;SDS011;55800;54.272;18.558;2023-12-29T01:17:14;8.75;;;4.78;;
68806;SDS011;55800;54.272;18.558;2023-12-29T01:19:43;8.25;;;5.07;;
68806;SDS011;55800;54.272;18.558;2023-12-29T01:22:14;11.25;;;5.55;;
68806;SDS011;55800;54.272;18.558;2023-12-29T01:24:43;9.70;;;4.75;;
68806;SDS011;55800;54.272;18.558;2023-12-29T01:27:13;8.30;;;5.03;;
68806;SDS011;55800;54.272;18.558;2023-12-29T01:29:42;11.10;;;4.55;;
68806;SDS011;55800;54.272;18.558;2023-12-29T01:32:12;8.85;;;5.25;;
68806;SDS011;55800;54.272;18.558;2023-12-29T01:34:42;9.00;;;4.38;;
68806;SDS011;55800;54.272;18.558;2023-12-29T01:37:11;9.38;;;4.75;;
68806;SDS011;55800;54.272;18.558;2023-12-29T01:39:42;7.93;;;5.50;;
68806;SDS011;55800;54.272;18.558;2023-12-29T01:42:13;8.50;;;4.93;;
68806;SDS011;55800;54.272;18.558;2023-12-29T01:44:42;8.30;;;4.20;;
68806;SDS011;55800;54.272;18.558;2023-12-29T01:47:13;10.48;;;5.28;;
68806;SDS011;55800;54.272;18.558;2023-12-29T01:49:44;10.82;;;5.15;;
68806;SDS011;55800;54.272;18.558;2023-12-29T01:52:17;7.28;;;4.82;;
68806;SDS011;55800;54.272;18.558;2023-12-29T01:54:49;10.43;;;4.75;;
68806;SDS011;55800;54.272;18.558;2023-12-29T01:57:21;9.15;;;5.60;;
68806;SDS011;55800;54.272;18.558;2023-12-29T01:59:50;9.10;;;5.05;;
68806;SDS011;55800;54.272;18.558;2023-12-29T02:04:49;8.27;;;5.13;;
68806;SDS011;55800;54.272;18.558;2023-12-29T02:09:50;9.60;;;4.45;;
68806;SDS011;55800;54.272;18.558;2023-12-29T02:12:21;10.35;;;5.45;;
68806;SDS011;55800;54.272;18.558;2023-12-29T02:14:50;6.95;;;4.80;;
68806;SDS011;55800;54.272;18.558;2023-12-29T02:17:21;9.27;;;5.20;;
68806;SDS011;55800;54.272;18.558;2023-12-29T02:19:54;8.45;;;4.93;;
68806;SDS011;55800;54.272;18.558;2023-12-29T02:22:26;8.00;;;5.00;;
68806;SDS011;55800;54.272;18.558;2023-12-29T02:24:56;9.15;;;5.35;;
68806;SDS011;55800;54.272;18.558;2023-12-29T02:27:29;6.82;;;4.40;;
68806;SDS011;55800;54.272;18.558;2023-12-29T02:30:09;8.43;;;3.42;;
68806;SDS011;55800;54.272;18.558;2023-12-29T02:32:42;6.40;;;4.40;;
68806;SDS011;55800;54.272;18.558;2023-12-29T02:35:21;6.47;;;4.32;;
68806;SDS011;55800;54.272;18.558;2023-12-29T02:37:53;8.15;;;5.38;;
68806;SDS011;55800;54.272;18.558;2023-12-29T02:40:26;6.60;;;4.30;;
68806;SDS011;55800;54.272;18.558;2023-12-29T02:42:55;7.20;;;4.90;;
68806;SDS011;55800;54.272;18.558;2023-12-29T02:45:25;9.77;;;4.65;;
68806;SDS011;55800;54.272;18.558;2023-12-29T02:50:25;6.72;;;4.53;;
68806;SDS011;55800;54.272;18.558;2023-12-29T02:52:55;11.60;;;6.30;;
68806;SDS011;55800;54.272;18.558;2023-12-29T02:55:25;7.18;;;5.05;;
68806;SDS011;55800;54.272;18.558;2023-12-29T02:57:55;7.63;;;5.18;;
68806;SDS011;55800;54.272;18.558;2023-12-29T03:02:54;5.63;;;4.35;;
68806;SDS011;55800;54.272;18.558;2023-12-29T03:05:24;10.48;;;5.32;;
68806;SDS011;55800;54.272;18.558;2023-12-29T03:07:54;8.02;;;4.78;;
68806;SDS011;55800;54.272;18.558;2023-12-29T03:10:26;6.88;;;4.30;;
68806;SDS011;55800;54.272;18.558;2023-12-29T03:12:55;9.43;;;4.53;;
68806;SDS011;55800;54.272;18.558;2023-12-29T03:15:24;6.63;;;4.55;;
68806;SDS011;55800;54.272;18.558;2023-12-29T03:17:54;14.02;;;5.75;;
68806;SDS011;55800;54.272;18.558;2023-12-29T03:20:24;8.68;;;4.57;;
68806;SDS011;55800;54.272;18.558;2023-12-29T03:22:54;8.73;;;4.72;;
68806;SDS011;55800;54.272;18.558;2023-12-29T03:25:25;7.30;;;4.32;;
68806;SDS011;55800;54.272;18.558;2023-12-29T03:27:55;9.23;;;4.90;;
68806;SDS011;55800;54.272;18.558;2023-12-29T03:33:48;8.50;;;4.82;;
68806;SDS011;55800;54.272;18.558;2023-12-29T03:36:18;7.70;;;4.38;;
68806;SDS011;55800;54.272;18.558;2023-12-29T03:38:47;9.98;;;4.30;;
68806;SDS011;55800;54.272;18.558;2023-12-29T03:41:18;10.63;;;5.00;;
68806;SDS011;55800;54.272;18.558;2023-12-29T03:43:47;8.02;;;5.53;;
68806;SDS011;55800;54.272;18.558;2023-12-29T03:46:17;6.22;;;4.30;;
68806;SDS011;55800;54.272;18.558;2023-12-29T03:48:47;12.23;;;5.70;;
68806;SDS011;55800;54.272;18.558;2023-12-29T03:53:46;7.80;;;4.80;;
68806;SDS011;55800;54.272;18.558;2023-12-29T03:56:17;9.82;;;4.95;;
68806;SDS011;55800;54.272;18.558;2023-12-29T03:58:47;10.85;;;4.53;;
68806;SDS011;55800;54.272;18.558;2023-12-29T04:01:17;8.70;;;4.57;;
68806;SDS011;55800;54.272;18.558;2023-12-29T04:03:47;9.93;;;5.30;;
68806;SDS011;55800;54.272;18.558;2023-12-29T04:06:16;6.78;;;3.58;;
68806;SDS011;55800;54.272;18.558;2023-12-29T04:08:46;8.57;;;4.78;;
68806;SDS011;55800;54.272;18.558;2023-12-29T04:11:15;11.63;;;4.53;;
68806;SDS011;55800;54.272;18.558;2023-12-29T04:13:46;7.88;;;4.55;;
68806;SDS011;55800;54.272;18.558;2023-12-29T04:16:15;9.07;;;5.05;;
68806;SDS011;55800;54.272;18.558;2023-12-29T04:18:45;7.80;;;4.32;;
68806;SDS011;55800;54.272;18.558;2023-12-29T04:21:14;7.53;;;4.25;;
68806;SDS011;55800;54.272;18.558;2023-12-29T04:23:44;7.00;;;3.65;;
68806;SDS011;55800;54.272;18.558;2023-12-29T04:26:13;8.32;;;4.47;;
68806;SDS011;55800;54.272;18.558;2023-12-29T04:28:45;8.52;;;3.97;;
68806;SDS011;55800;54.272;18.558;2023-12-29T04:31:14;9.55;;;4.45;;
68806;SDS011;55800;54.272;18.558;2023-12-29T04:33:44;6.63;;;5.50;;
68806;SDS011;55800;54.272;18.558;2023-12-29T04:36:13;9.95;;;4.82;;
68806;SDS011;55800;54.272;18.558;2023-12-29T04:38:44;9.40;;;4.05;;
68806;SDS011;55800;54.272;18.558;2023-12-29T04:41:14;9.95;;;4.00;;
68806;SDS011;55800;54.272;18.558;2023-12-29T04:43:43;9.52;;;4.93;;
68806;SDS011;55800;54.272;18.558;2023-12-29T04:46:14;10.27;;;4.45;;
68806;SDS011;55800;54.272;18.558;2023-12-29T04:48:44;8.50;;;4.18;;
68806;SDS011;55800;54.272;18.558;2023-12-29T04:51:13;7.97;;;4.15;;
68806;SDS011;55800;54.272;18.558;2023-12-29T04:53:43;6.10;;;4.28;;
68806;SDS011;55800;54.272;18.558;2023-12-29T04:56:12;6.63;;;3.25;;
68806;SDS011;55800;54.272;18.558;2023-12-29T05:01:12;5.25;;;3.17;;
68806;SDS011;55800;54.272;18.558;2023-12-29T05:03:42;11.88;;;3.72;;
68806;SDS011;55800;54.272;18.558;2023-12-29T05:06:11;7.22;;;3.60;;
68806;SDS011;55800;54.272;18.558;2023-12-29T05:08:41;8.23;;;3.47;;
68806;SDS011;55800;54.272;18.558;2023-12-29T05:11:10;6.72;;;3.30;;
68806;SDS011;55800;54.272;18.558;2023-12-29T05:13:40;9.65;;;4.32;;
68806;SDS011;55800;54.272;18.558;2023-12-29T05:16:09;6.80;;;3.55;;
68806;SDS011;55800;54.272;18.558;2023-12-29T05:18:40;6.78;;;4.18;;
68806;SDS011;55800;54.272;18.558;2023-12-29T05:21:14;6.20;;;3.55;;
68806;SDS011;55800;54.272;18.558;2023-12-29T05:23:44;8.02;;;3.78;;
68806;SDS011;55800;54.272;18.558;2023-12-29T05:26:14;11.10;;;3.72;;
68806;SDS011;55800;54.272;18.558;2023-12-29T05:28:43;4.50;;;3.25;;
68806;SDS011;55800;54.272;18.558;2023-12-29T05:31:13;8.00;;;3.95;;
68806;SDS011;55800;54.272;18.558;2023-12-29T05:33:44;6.97;;;3.22;;
68806;SDS011;55800;54.272;18.558;2023-12-29T05:36:14;8.75;;;3.38;;
68806;SDS011;55800;54.272;18.558;2023-12-29T05:41:13;6.72;;;3.50;;
68806;SDS011;55800;54.272;18.558;2023-12-29T05:43:43;4.93;;;3.50;;
68806;SDS011;55800;54.272;18.558;2023-12-29T05:46:13;10.65;;;3.45;;
68806;SDS011;55800;54.272;18.558;2023-12-29T05:51:14;6.07;;;3.05;;
68806;SDS011;55800;54.272;18.558;2023-12-29T05:53:44;9.18;;;2.72;;
68806;SDS011;55800;54.272;18.558;2023-12-29T05:56:13;8.40;;;3.50;;
68806;SDS011;55800;54.272;18.558;2023-12-29T05:58:43;4.55;;;2.42;;
68806;SDS011;55800;54.272;18.558;2023-12-29T06:01:12;5.90;;;2.40;;
68806;SDS011;55800;54.272;18.558;2023-12-29T06:03:42;7.95;;;3.15;;
68806;SDS011;55800;54.272;18.558;2023-12-29T06:06:13;4.40;;;3.13;;
68806;SDS011;55800;54.272;18.558;2023-12-29T06:11:14;6.03;;;3.00;;
68806;SDS011;55800;54.272;18.558;2023-12-29T06:13:45;5.35;;;3.30;;
68806;SDS011;55800;54.272;18.558;2023-12-29T06:16:17;6.03;;;2.97;;
68806;SDS011;55800;54.272;18.558;2023-12-29T06:18:49;8.73;;;3.17;;
68806;SDS011;55800;54.272;18.558;2023-12-29T06:21:18;5.00;;;3.67;;
68806;SDS011;55800;54.272;18.558;2023-12-29T06:23:48;5.20;;;3.78;;
68806;SDS011;55800;54.272;18.558;2023-12-29T06:26:17;7.15;;;3.40;;
68806;SDS011;55800;54.272;18.558;2023-12-29T06:28:48;8.13;;;4.10;;
68806;SDS011;55800;54.272;18.558;2023-12-29T06:31:17;8.40;;;3.28;;
68806;SDS011;55800;54.272;18.558;2023-12-29T06:33:48;4.60;;;3.08;;
68806;SDS011;55800;54.272;18.558;2023-12-29T06:36:17;5.05;;;2.88;;
68806;SDS011;55800;54.272;18.558;2023-12-29T06:41:18;5.47;;;2.78;;
68806;SDS011;55800;54.272;18.558;2023-12-29T06:43:48;10.85;;;4.13;;
68806;SDS011;55800;54.272;18.558;2023-12-29T06:46:17;11.57;;;3.83;;
68806;SDS011;55800;54.272;18.558;2023-12-29T06:48:48;8.57;;;4.30;;
68806;SDS011;55800;54.272;18.558;2023-12-29T06:51:18;5.53;;;3.00;;
68806;SDS011;55800;54.272;18.558;2023-12-29T06:53:49;5.28;;;2.95;;
68806;SDS011;55800;54.272;18.558;2023-12-29T06:56:19;4.32;;;2.80;;
68806;SDS011;55800;54.272;18.558;2023-12-29T07:01:17;7.53;;;3.60;;
68806;SDS011;55800;54.272;18.558;2023-12-29T07:03:49;9.70;;;2.88;;
68806;SDS011;55800;54.272;18.558;2023-12-29T07:06:18;5.70;;;3.40;;
68806;SDS011;55800;54.272;18.558;2023-12-29T07:08:48;5.03;;;3.22;;
68806;SDS011;55800;54.272;18.558;2023-12-29T07:11:17;2.53;;;2.33;;
68806;SDS011;55800;54.272;18.558;2023-12-29T07:13:47;7.05;;;3.42;;
68806;SDS011;55800;54.272;18.558;2023-12-29T07:16:16;6.13;;;2.83;;
68806;SDS011;55800;54.272;18.558;2023-12-29T07:18:49;8.40;;;3.20;;
68806;SDS011;55800;54.272;18.558;2023-12-29T07:21:18;8.45;;;3.42;;
68806;SDS011;55800;54.272;18.558;2023-12-29T07:23:48;5.95;;;2.78;;
68806;SDS011;55800;54.272;18.558;2023-12-29T07:26:17;7.45;;;3.78;;
68806;SDS011;55800;54.272;18.558;2023-12-29T07:28:46;4.50;;;3.10;;
68806;SDS011;55800;54.272;18.558;2023-12-29T07:31:21;10.05;;;3.92;;
68806;SDS011;55800;54.272;18.558;2023-12-29T07:33:52;5.95;;;2.88;;
68806;SDS011;55800;54.272;18.558;2023-12-29T07:36:21;8.02;;;3.45;;
68806;SDS011;55800;54.272;18.558;2023-12-29T07:41:20;8.53;;;3.00;;
68806;SDS011;55800;54.272;18.558;2023-12-29T07:43:50;7.20;;;3.55;;
68806;SDS011;55800;54.272;18.558;2023-12-29T07:46:23;7.55;;;3.78;;
68806;SDS011;55800;54.272;18.558;2023-12-29T07:48:55;12.73;;;3.15;;
68806;SDS011;55800;54.272;18.558;2023-12-29T07:51:25;2.83;;;1.85;;
68806;SDS011;55800;54.272;18.558;2023-12-29T07:53:54;7.78;;;2.70;;
68806;SDS011;55800;54.272;18.558;2023-12-29T07:56:23;6.90;;;3.20;;
68806;SDS011;55800;54.272;18.558;2023-12-29T07:58:53;6.18;;;3.00;;
68806;SDS011;55800;54.272;18.558;2023-12-29T08:01:22;7.25;;;2.78;;
68806;SDS011;55800;54.272;18.558;2023-12-29T08:03:54;6.63;;;2.90;;
68806;SDS011;55800;54.272;18.558;2023-12-29T08:06:23;5.10;;;2.75;;
68806;SDS011;55800;54.272;18.558;2023-12-29T08:08:53;2.25;;;1.70;;
68806;SDS011;55800;54.272;18.558;2023-12-29T08:11:23;6.68;;;3.20;;
68806;SDS011;55800;54.272;18.558;2023-12-29T08:13:52;5.30;;;2.47;;
68806;SDS011;55800;54.272;18.558;2023-12-29T08:16:22;3.88;;;2.80;;
68806;SDS011;55800;54.272;18.558;2023-12-29T08:18:51;4.95;;;3.28;;
68806;SDS011;55800;54.272;18.558;2023-12-29T08:21:22;3.95;;;2.20;;
68806;SDS011;55800;54.272;18.558;2023-12-29T08:23:52;6.03;;;3.15;;
68806;SDS011;55800;54.272;18.558;2023-12-29T08:26:21;5.03;;;2.90;;
68806;SDS011;55800;54.272;18.558;2023-12-29T08:28:50;7.47;;;3.35;;
68806;SDS011;55800;54.272;18.558;2023-12-29T08:31:20;5.18;;;2.78;;
68806;SDS011;55800;54.272;18.558;2023-12-29T08:33:50;2.45;;;2.20;;
68806;SDS011;55800;54.272;18.558;2023-12-29T08:36:20;7.00;;;2.75;;
68806;SDS011;55800;54.272;18.558;2023-12-29T08:38:51;5.80;;;2.80;;
68806;SDS011;55800;54.272;18.558;2023-12-29T08:41:20;4.68;;;2.67;;
68806;SDS011;55800;54.272;18.558;2023-12-29T08:48:50;4.88;;;2.60;;
68806;SDS011;55800;54.272;18.558;2023-12-29T08:51:19;9.15;;;4.13;;
68806;SDS011;55800;54.272;18.558;2023-12-29T08:53:50;4.72;;;2.33;;
68806;SDS011;55800;54.272;18.558;2023-12-29T08:56:19;4.90;;;3.08;;
68806;SDS011;55800;54.272;18.558;2023-12-29T08:58:52;7.10;;;3.13;;
68806;SDS011;55800;54.272;18.558;2023-12-29T09:01:21;8.02;;;2.40;;
68806;SDS011;55800;54.272;18.558;2023-12-29T09:06:20;7.85;;;3.92;;
68806;SDS011;55800;54.272;18.558;2023-12-29T09:11:20;3.92;;;2.20;;
68806;SDS011;55800;54.272;18.558;2023-12-29T09:13:49;4.15;;;1.98;;
68806;SDS011;55800;54.272;18.558;2023-12-29T09:16:18;3.63;;;2.20;;
68806;SDS011;55800;54.272;18.558;2023-12-29T09:18:48;9.25;;;2.72;;
68806;SDS011;55800;54.272;18.558;2023-12-29T09:21:17;6.75;;;2.55;;
68806;SDS011;55800;54.272;18.558;2023-12-29T09:23:47;5.88;;;2.30;;
68806;SDS011;55800;54.272;18.558;2023-12-29T09:26:18;7.30;;;2.92;;
68806;SDS011;55800;54.272;18.558;2023-12-29T09:28:48;9.52;;;3.40;;
68806;SDS011;55800;54.272;18.558;2023-12-29T09:31:17;6.85;;;2.88;;
68806;SDS011;55800;54.272;18.558;2023-12-29T09:33:47;9.70;;;3.17;;
68806;SDS011;55800;54.272;18.558;2023-12-29T09:36:16;6.45;;;4.25;;
68806;SDS011;55800;54.272;18.558;2023-12-29T09:38:45;7.45;;;4.05;;
68806;SDS011;55800;54.272;18.558;2023-12-29T09:41:15;4.13;;;2.63;;
68806;SDS011;55800;54.272;18.558;2023-12-29T09:43:47;7.50;;;3.55;;
68806;SDS011;55800;54.272;18.558;2023-12-29T09:46:17;6.72;;;3.55;;
68806;SDS011;55800;54.272;18.558;2023-12-29T09:48:50;8.45;;;4.00;;
68806;SDS011;55800;54.272;18.558;2023-12-29T09:51:23;3.75;;;2.08;;
68806;SDS011;55800;54.272;18.558;2023-12-29T09:53:54;7.60;;;3.63;;
68806;SDS011;55800;54.272;18.558;2023-12-29T09:56:25;6.18;;;2.55;;
68806;SDS011;55800;54.272;18.558;2023-12-29T10:01:50;5.10;;;2.17;;
68806;SDS011;55800;54.272;18.558;2023-12-29T10:04:21;3.63;;;2.17;;
68806;SDS011;55800;54.272;18.558;2023-12-29T10:06:50;4.90;;;2.53;;
68806;SDS011;55800;54.272;18.558;2023-12-29T10:09:21;2.70;;;2.35;;
68806;SDS011;55800;54.272;18.558;2023-12-29T10:11:52;8.82;;;3.33;;
68806;SDS011;55800;54.272;18.558;2023-12-29T10:14:35;5.75;;;3.20;;
68806;SDS011;55800;54.272;18.558;2023-12-29T10:17:15;4.90;;;2.72;;
68806;SDS011;55800;54.272;18.558;2023-12-29T10:19:55;5.68;;;2.85;;
68806;SDS011;55800;54.272;18.558;2023-12-29T10:22:34;5.63;;;2.72;;
68806;SDS011;55800;54.272;18.558;2023-12-29T10:25:10;6.97;;;2.92;;
68806;SDS011;55800;54.272;18.558;2023-12-29T10:27:40;4.97;;;2.83;;
68806;SDS011;55800;54.272;18.558;2023-12-29T10:30:10;5.30;;;3.28;;
68806;SDS011;55800;54.272;18.558;2023-12-29T10:32:55;4.43;;;2.60;;
68806;SDS011;55800;54.272;18.558;2023-12-29T10:35:27;5.47;;;3.50;;
68806;SDS011;55800;54.272;18.558;2023-12-29T10:38:07;5.38;;;3.17;;
68806;SDS011;55800;54.272;18.558;2023-12-29T10:40:38;3.65;;;2.38;;
68806;SDS011;55800;54.272;18.558;2023-12-29T10:43:10;6.75;;;2.40;;
68806;SDS011;55800;54.272;18.558;2023-12-29T10:48:11;4.88;;;2.53;;
68806;SDS011;55800;54.272;18.558;2023-12-29T10:50:43;3.22;;;2.08;;
68806;SDS011;55800;54.272;18.558;2023-12-29T10:53:13;3.80;;;2.40;;
68806;SDS011;55800;54.272;18.558;2023-12-29T10:55:44;5.78;;;3.10;;
68806;SDS011;55800;54.272;18.558;2023-12-29T10:58:15;6.20;;;2.38;;
68806;SDS011;55800;54.272;18.558;2023-12-29T11:00:46;5.28;;;2.20;;
68806;SDS011;55800;54.272;18.558;2023-12-29T11:03:17;5.78;;;2.70;;
68806;SDS011;55800;54.272;18.558;2023-12-29T11:05:47;5.53;;;2.25;;
68806;SDS011;55800;54.272;18.558;2023-12-29T11:08:16;4.57;;;2.25;;
68806;SDS011;55800;54.272;18.558;2023-12-29T11:10:48;5.50;;;3.00;;
68806;SDS011;55800;54.272;18.558;2023-12-29T11:13:17;8.23;;;2.63;;
68806;SDS011;55800;54.272;18.558;2023-12-29T11:15:48;6.20;;;2.95;;
68806;SDS011;55800;54.272;18.558;2023-12-29T11:18:21;6.35;;;3.38;;
68806;SDS011;55800;54.272;18.558;2023-12-29T11:20:52;4.05;;;2.53;;
68806;SDS011;55800;54.272;18.558;2023-12-29T11:23:21;3.83;;;1.90;;
68806;SDS011;55800;54.272;18.558;2023-12-29T11:25:51;3.80;;;2.22;;
68806;SDS011;55800;54.272;18.558;2023-12-29T11:28:21;2.58;;;1.45;;
68806;SDS011;55800;54.272;18.558;2023-12-29T11:30:51;5.05;;;2.25;;
68806;SDS011;55800;54.272;18.558;2023-12-29T11:33:23;2.05;;;1.40;;
68806;SDS011;55800;54.272;18.558;2023-12-29T11:36:01;6.85;;;2.95;;
68806;SDS011;55800;54.272;18.558;2023-12-29T11:41:18;3.25;;;1.88;;
68806;SDS011;55800;54.272;18.558;2023-12-29T11:43:56;6.38;;;2.35;;
68806;SDS011;55800;54.272;18.558;2023-12-29T11:46:33;4.47;;;1.95;;
68806;SDS011;55800;54.272;18.558;2023-12-29T11:49:05;4.57;;;2.15;;
68806;SDS011;55800;54.272;18.558;2023-12-29T11:51:35;5.53;;;2.38;;
68806;SDS011;55800;54.272;18.558;2023-12-29T11:54:07;4.43;;;1.90;;
68806;SDS011;55800;54.272;18.558;2023-12-29T11:59:18;9.47;;;2.07;;
68806;SDS011;55800;54.272;18.558;2023-12-29T12:01:49;6.32;;;3.13;;
68806;SDS011;55800;54.272;18.558;2023-12-29T12:04:40;5.25;;;2.15;;
68806;SDS011;55800;54.272;18.558;2023-12-29T12:07:15;3.72;;;1.73;;
68806;SDS011;55800;54.272;18.558;2023-12-29T12:13:01;5.90;;;2.03;;
68806;SDS011;55800;54.272;18.558;2023-12-29T12:15:31;4.95;;;1.85;;
68806;SDS011;55800;54.272;18.558;2023-12-29T12:18:02;3.92;;;2.40;;
68806;SDS011;55800;54.272;18.558;2023-12-29T12:20:36;3.97;;;2.38;;
68806;SDS011;55800;54.272;18.558;2023-12-29T12:23:09;6.03;;;2.97;;
68806;SDS011;55800;54.272;18.558;2023-12-29T12:25:45;7.80;;;2.20;;
68806;SDS011;55800;54.272;18.558;2023-12-29T12:28:18;3.60;;;1.92;;
68806;SDS011;55800;54.272;18.558;2023-12-29T12:30:47;5.65;;;2.60;;
68806;SDS011;55800;54.272;18.558;2023-12-29T12:33:17;4.20;;;2.90;;
68806;SDS011;55800;54.272;18.558;2023-12-29T12:38:28;5.05;;;2.30;;
68806;SDS011;55800;54.272;18.558;2023-12-29T12:41:09;3.97;;;1.98;;
68806;SDS011;55800;54.272;18.558;2023-12-29T12:43:43;6.25;;;1.80;;
68806;SDS011;55800;54.272;18.558;2023-12-29T12:46:18;2.45;;;1.83;;
68806;SDS011;55800;54.272;18.558;2023-12-29T12:48:53;11.95;;;3.58;;
68806;SDS011;55800;54.272;18.558;2023-12-29T12:51:24;5.35;;;1.92;;
68806;SDS011;55800;54.272;18.558;2023-12-29T12:53:54;3.50;;;1.98;;
68806;SDS011;55800;54.272;18.558;2023-12-29T12:58:55;4.45;;;1.50;;
68806;SDS011;55800;54.272;18.558;2023-12-29T13:01:25;3.30;;;1.90;;
68806;SDS011;55800;54.272;18.558;2023-12-29T13:03:56;3.22;;;2.05;;
68806;SDS011;55800;54.272;18.558;2023-12-29T13:06:28;4.82;;;1.90;;
68806;SDS011;55800;54.272;18.558;2023-12-29T13:08:59;4.78;;;2.58;;
68806;SDS011;55800;54.272;18.558;2023-12-29T13:11:30;5.65;;;2.15;;
68806;SDS011;55800;54.272;18.558;2023-12-29T13:16:29;4.82;;;1.73;;
68806;SDS011;55800;54.272;18.558;2023-12-29T13:19:14;2.17;;;1.15;;
68806;SDS011;55800;54.272;18.558;2023-12-29T13:21:46;3.95;;;2.22;;
68806;SDS011;55800;54.272;18.558;2023-12-29T13:24:16;4.25;;;1.90;;
68806;SDS011;55800;54.272;18.558;2023-12-29T13:26:46;6.65;;;2.22;;
68806;SDS011;55800;54.272;18.558;2023-12-29T13:29:19;3.70;;;1.90;;
68806;SDS011;55800;54.272;18.558;2023-12-29T13:31:52;2.50;;;1.55;;
68806;SDS011;55800;54.272;18.558;2023-12-29T13:34:26;5.07;;;2.00;;
68806;SDS011;55800;54.272;18.558;2023-12-29T13:37:02;4.30;;;2.05;;
68806;SDS011;55800;54.272;18.558;2023-12-29T13:39:36;2.88;;;1.70;;
68806;SDS011;55800;54.272;18.558;2023-12-29T13:42:09;6.18;;;2.03;;
68806;SDS011;55800;54.272;18.558;2023-12-29T13:44:41;3.78;;;2.35;;
68806;SDS011;55800;54.272;18.558;2023-12-29T13:47:12;5.57;;;2.10;;
68806;SDS011;55800;54.272;18.558;2023-12-29T13:49:44;5.20;;;2.45;;
68806;SDS011;55800;54.272;18.558;2023-12-29T13:52:17;8.63;;;3.80;;
68806;SDS011;55800;54.272;18.558;2023-12-29T13:54:48;4.85;;;2.35;;
68806;SDS011;55800;54.272;18.558;2023-12-29T13:59:48;5.13;;;1.70;;
68806;SDS011;55800;54.272;18.558;2023-12-29T14:02:23;4.50;;;2.53;;
68806;SDS011;55800;54.272;18.558;2023-12-29T14:05:10;7.88;;;4.30;;
68806;SDS011;55800;54.272;18.558;2023-12-29T14:07:46;4.45;;;2.25;;
68806;SDS011;55800;54.272;18.558;2023-12-29T14:10:21;7.40;;;3.92;;
68806;SDS011;55800;54.272;18.558;2023-12-29T14:15:20;7.10;;;3.20;;
68806;SDS011;55800;54.272;18.558;2023-12-29T14:17:49;6.43;;;2.63;;
68806;SDS011;55800;54.272;18.558;2023-12-29T14:23:04;6.47;;;4.20;;
68806;SDS011;55800;54.272;18.558;2023-12-29T14:25:34;7.38;;;2.92;;
68806;SDS011;55800;54.272;18.558;2023-12-29T14:28:14;4.82;;;2.38;;
68806;SDS011;55800;54.272;18.558;2023-12-29T14:30:44;10.90;;;3.63;;
68806;SDS011;55800;54.272;18.558;2023-12-29T14:33:14;8.07;;;3.95;;
68806;SDS011;55800;54.272;18.558;2023-12-29T14:35:44;13.07;;;4.00;;
68806;SDS011;55800;54.272;18.558;2023-12-29T14:38:16;7.35;;;2.90;;
68806;SDS011;55800;54.272;18.558;2023-12-29T14:40:47;7.15;;;3.45;;
68806;SDS011;55800;54.272;18.558;2023-12-29T14:43:17;7.45;;;4.72;;
68806;SDS011;55800;54.272;18.558;2023-12-29T14:48:15;11.15;;;4.03;;
68806;SDS011;55800;54.272;18.558;2023-12-29T14:50:46;5.35;;;1.98;;
68806;SDS011;55800;54.272;18.558;2023-12-29T14:53:17;6.43;;;2.50;;
68806;SDS011;55800;54.272;18.558;2023-12-29T14:55:46;7.18;;;3.63;;
68806;SDS011;55800;54.272;18.558;2023-12-29T14:58:15;9.38;;;2.88;;
68806;SDS011;55800;54.272;18.558;2023-12-29T15:00:45;10.27;;;2.67;;
68806;SDS011;55800;54.272;18.558;2023-12-29T15:03:17;4.53;;;2.53;;
68806;SDS011;55800;54.272;18.558;2023-12-29T15:05:48;7.63;;;3.13;;
68806;SDS011;55800;54.272;18.558;2023-12-29T15:08:20;7.10;;;2.22;;
68806;SDS011;55800;54.272;18.558;2023-12-29T15:10:52;6.82;;;2.25;;
68806;SDS011;55800;54.272;18.558;2023-12-29T15:13:24;7.18;;;3.20;;
68806;SDS011;55800;54.272;18.558;2023-12-29T15:15:54;9.95;;;3.30;;
68806;SDS011;55800;54.272;18.558;2023-12-29T15:20:53;8.13;;;3.17;;
68806;SDS011;55800;54.272;18.558;2023-12-29T15:23:25;5.93;;;2.88;;
68806;SDS011;55800;54.272;18.558;2023-12-29T15:25:55;7.43;;;3.40;;
68806;SDS011;55800;54.272;18.558;2023-12-29T15:28:24;7.35;;;3.35;;
68806;SDS011;55800;54.272;18.558;2023-12-29T15:30:54;4.25;;;2.33;;
68806;SDS011;55800;54.272;18.558;2023-12-29T15:33:24;9.38;;;2.92;;
68806;SDS011;55800;54.272;18.558;2023-12-29T15:35:54;7.80;;;2.15;;
68806;SDS011;55800;54.272;18.558;2023-12-29T15:38:25;10.10;;;3.65;;
68806;SDS011;55800;54.272;18.558;2023-12-29T15:40:55;4.35;;;2.65;;
68806;SDS011;55800;54.272;18.558;2023-12-29T15:43:24;12.98;;;3.30;;
68806;SDS011;55800;54.272;18.558;2023-12-29T15:45:56;4.80;;;2.05;;
68806;SDS011;55800;54.272;18.558;2023-12-29T15:48:26;11.00;;;3.10;;
68806;SDS011;55800;54.272;18.558;2023-12-29T15:53:26;4.43;;;2.70;;
68806;SDS011;55800;54.272;18.558;2023-12-29T15:55:55;6.75;;;2.75;;
68806;SDS011;55800;54.272;18.558;2023-12-29T15:58:25;6.05;;;2.38;;
68806;SDS011;55800;54.272;18.558;2023-12-29T16:03:24;4.43;;;2.25;;
68806;SDS011;55800;54.272;18.558;2023-12-29T16:05:54;3.92;;;2.22;;
68806;SDS011;55800;54.272;18.558;2023-12-29T16:08:29;7.07;;;3.35;;
68806;SDS011;55800;54.272;18.558;2023-12-29T16:10:59;5.97;;;2.80;;
68806;SDS011;55800;54.272;18.558;2023-12-29T16:13:28;10.25;;;3.70;;
68806;SDS011;55800;54.272;18.558;2023-12-29T16:16:02;9.25;;;3.25;;
68806;SDS011;55800;54.272;18.558;2023-12-29T16:18:31;6.57;;;2.42;;